Time;durP1;ratioP1;P1;durP2;ratioP2;P2;SDS_P1;SDS_P2;PMS_P1;PMS_P2;Temp;Humidity;BMP_temperature;BMP_pressure;BME280_temperature;BME280_humidity;BME280_pressure;Samples;Min_cycle;Max_cycle;Signal;HPM_P1;HPM_P2
2022/07/26 00:01:16;;;;;;;17.00;3.13;;;;;;;;;;5050082;28;20028;-73
2022/07/26 00:03:42;;;;;;;19.67;3.65;;;;;;;;;;5052530;28;20179;-73
2022/07/26 00:06:08;;;;;;;21.75;4.18;;;;;;;;;;5013953;28;20495;-73
2022/07/26 00:08:34;;;;;;;21.98;3.05;;;;;;;;;;5046715;28;20453;-74
2022/07/26 00:11:01;;;;;;;18.02;3.30;;;;;;;;;;5050463;28;20392;-73
2022/07/26 00:13:27;;;;;;;18.10;2.97;;;;;;;;;;5049741;28;20469;-73
2022/07/26 00:15:53;;;;;;;19.30;2.70;;;;;;;;;;5051782;28;20056;-73
2022/07/26 00:18:20;;;;;;;16.35;3.38;;;;;;;;;;5042968;28;20026;-72
2022/07/26 00:20:47;;;;;;;16.02;3.75;;;;;;;;;;5047962;28;20076;-72
2022/07/26 00:23:13;;;;;;;12.80;3.13;;;;;;;;;;5050249;28;20021;-72
2022/07/26 00:25:39;;;;;;;16.20;2.75;;;19.00;99.90;;;;;;5045815;28;20473;-72
2022/07/26 00:28:06;;;;;;;15.48;2.42;;;;;;;;;;5051602;28;20033;-72
2022/07/26 00:30:32;;;;;;;9.52;2.33;;;;;;;;;;5048877;28;20053;-72
2022/07/26 00:32:58;;;;;;;9.63;2.40;;;;;;;;;;5046326;28;20084;-72
2022/07/26 00:35:24;;;;;;;13.68;4.15;;;;;;;;;;5051419;28;20060;-74
2022/07/26 00:37:50;;;;;;;9.10;2.10;;;;;;;;;;5047951;28;20037;-70
2022/07/26 00:40:17;;;;;;;8.43;2.80;;;;;;;;;;5046535;28;20052;-69
2022/07/26 00:42:43;;;;;;;10.32;1.90;;;;;;;;;;5047273;28;20123;-72
2022/07/26 00:45:09;;;;;;;11.15;2.60;;;;;;;;;;5042872;28;20043;-72
2022/07/26 00:47:36;;;;;;;6.20;2.17;;;;;;;;;;5050359;28;20078;-73
2022/07/26 00:50:02;;;;;;;7.28;1.75;;;;;;;;;;5049690;28;20481;-75
2022/07/26 00:52:28;;;;;;;4.03;1.67;;;;;;;;;;5044154;28;20516;-72
2022/07/26 00:54:55;;;;;;;7.10;1.90;;;;;;;;;;5041239;28;20045;-73
2022/07/26 00:57:22;;;;;;;5.07;1.50;;;;;;;;;;5050076;28;20025;-75
2022/07/26 00:59:48;;;;;;;4.35;1.80;;;;;;;;;;5048303;28;20068;-76
2022/07/26 01:02:14;;;;;;;5.70;1.45;;;;;;;;;;5041211;28;20175;-72
2022/07/26 01:04:43;;;;;;;3.10;1.30;;;19.20;99.90;;;;;;5050478;28;20041;-74
2022/07/26 01:07:09;;;;;;;5.03;1.35;;;;;;;;;;5034322;28;20044;-75
2022/07/26 01:09:35;;;;;;;3.10;1.40;;;;;;;;;;5042814;28;20055;-72
2022/07/26 01:12:01;;;;;;;5.63;1.45;;;;;;;;;;5047501;28;20511;-73
2022/07/26 01:14:27;;;;;;;5.80;1.38;;;;;;;;;;5048602;28;20037;-73
2022/07/26 01:16:53;;;;;;;9.02;1.58;;;;;;;;;;5048681;28;20040;-73
2022/07/26 01:19:20;;;;;;;7.55;1.88;;;;;;;;;;5048583;28;20119;-73
2022/07/26 01:21:46;;;;;;;7.05;2.55;;;;;;;;;;5043627;28;20034;-74
2022/07/26 01:24:12;;;;;;;2.72;1.48;;;;;;;;;;5035678;28;20033;-73
2022/07/26 01:26:38;;;;;;;4.20;1.50;;;;;;;;;;5040876;28;20433;-75
2022/07/26 01:29:04;;;;;;;7.68;1.80;;;;;;;;;;5047045;28;20542;-72
2022/07/26 01:31:30;;;;;;;5.00;2.25;;;;;;;;;;5049265;28;20044;-73
2022/07/26 01:33:56;;;;;;;7.80;2.13;;;;;;;;;;5048132;28;20444;-73
2022/07/26 01:36:22;;;;;;;5.20;1.77;;;;;;;;;;5049160;28;20036;-73
2022/07/26 01:38:49;;;;;;;7.35;1.70;;;;;;;;;;5043606;28;20026;-73
2022/07/26 01:41:15;;;;;;;4.28;2.03;;;;;;;;;;5044033;28;20049;-73
2022/07/26 01:43:41;;;;;;;9.60;1.95;;;;;;;;;;5048689;28;20112;-72
2022/07/26 01:46:08;;;;;;;5.07;1.90;;;;;;;;;;5049413;28;20119;-73
2022/07/26 01:48:34;;;;;;;6.13;2.42;;;;;;;;;;5059514;28;20140;-73
2022/07/26 01:51:00;;;;;;;6.82;1.77;;;;;;;;;;5044690;28;20034;-73
2022/07/26 01:53:26;;;;;;;5.60;2.42;;;;;;;;;;5047608;28;20684;-72
2022/07/26 01:55:52;;;;;;;6.45;2.15;;;;;;;;;;5049861;28;20040;-74
2022/07/26 01:58:19;;;;;;;5.43;1.60;;;;;;;;;;5046411;28;20040;-73
2022/07/26 02:00:45;;;;;;;10.35;2.05;;;;;;;;;;5048984;28;20041;-73
2022/07/26 02:03:11;;;;;;;4.47;1.67;;;;;;;;;;5042736;28;20112;-73
2022/07/26 02:05:37;;;;;;;3.22;1.58;;;;;;;;;;5051042;28;20139;-73
2022/07/26 02:08:03;;;;;;;3.35;1.38;;;;;;;;;;5045986;28;20092;-73
2022/07/26 02:10:59;;;;;;;6.28;1.70;;;;;;;;;;5051327;28;20032;-73
2022/07/26 02:13:17;;;;;;;6.78;1.80;;;;;;;;;;5047107;28;20041;-73
2022/07/26 02:15:43;;;;;;;8.75;2.30;;;;;;;;;;5050644;28;20032;-73
2022/07/26 02:18:09;;;;;;;8.10;1.85;;;;;;;;;;5043583;28;20058;-73
2022/07/26 02:20:35;;;;;;;8.48;2.13;;;;;;;;;;5048993;28;20479;-73
2022/07/26 02:23:02;;;;;;;13.88;2.63;;;;;;;;;;5041017;28;20025;-74
2022/07/26 02:25:28;;;;;;;6.80;2.20;;;;;;;;;;5048692;28;20492;-72
2022/07/26 02:27:54;;;;;;;5.82;1.95;;;;;;;;;;5050103;28;20477;-72
2022/07/26 02:30:20;;;;;;;10.20;1.92;;;;;;;;;;5048251;28;20060;-72
2022/07/26 02:32:46;;;;;;;12.45;2.45;;;;;;;;;;5051681;28;20472;-72
2022/07/26 02:35:13;;;;;;;5.45;1.50;;;;;;;;;;5051809;28;20053;-72
2022/07/26 02:37:39;;;;;;;7.00;1.48;;;;;;;;;;5053236;28;20461;-72
2022/07/26 02:40:06;;;;;;;9.20;2.45;;;;;;;;;;5051707;28;20142;-72
2022/07/26 02:42:32;;;;;;;6.22;1.67;;;;;;;;;;5047576;28;20470;-72
2022/07/26 02:44:58;;;;;;;9.98;1.95;;;;;;;;;;5050112;28;20080;-72
2022/07/26 02:47:24;;;;;;;8.10;1.65;;;;;;;;;;5052462;28;20045;-73
2022/07/26 02:49:50;;;;;;;7.38;2.00;;;;;;;;;;5051643;28;20043;-72
2022/07/26 02:52:17;;;;;;;8.60;1.75;;;;;;;;;;5042983;28;20104;-72
2022/07/26 02:54:43;;;;;;;6.50;1.55;;;;;;;;;;5050930;28;20063;-73
2022/07/26 02:57:09;;;;;;;6.90;1.38;;;;;;;;;;5048197;28;20055;-72
2022/07/26 02:59:35;;;;;;;7.88;1.80;;;;;;;;;;5025777;28;20029;-72
2022/07/26 03:02:01;;;;;;;9.73;1.92;;;17.40;99.90;;;;;;5052404;28;20036;-73
2022/07/26 03:04:27;;;;;;;9.55;1.52;;;;;;;;;;5039772;28;20040;-73
2022/07/26 03:06:53;;;;;;;5.75;1.40;;;;;;;;;;5037532;28;20020;-73
2022/07/26 03:09:19;;;;;;;5.60;1.13;;;;;;;;;;5039691;28;20048;-73
2022/07/26 03:11:45;;;;;;;10.23;1.38;;;;;;;;;;5054007;28;20535;-73
2022/07/26 03:14:11;;;;;;;9.43;1.92;;;;;;;;;;5048377;28;20044;-73
2022/07/26 03:16:38;;;;;;;10.50;2.05;;;;;;;;;;5051238;28;20430;-73
2022/07/26 03:19:04;;;;;;;11.85;1.80;;;;;;;;;;5052356;28;20082;-73
2022/07/26 03:21:30;;;;;;;8.13;1.60;;;;;;;;;;5035716;28;20535;-73
2022/07/26 03:23:56;;;;;;;6.00;1.50;;;;;;;;;;5044911;28;20041;-73
2022/07/26 03:26:22;;;;;;;6.30;1.40;;;;;;;;;;5047729;28;20370;-73
2022/07/26 03:28:48;;;;;;;9.15;1.40;;;;;;;;;;5039230;28;20072;-73
2022/07/26 03:31:14;;;;;;;15.30;2.33;;;;;;;;;;5048114;28;20038;-73
2022/07/26 03:33:40;;;;;;;7.93;1.60;;;;;;;;;;5049808;28;20362;-73
2022/07/26 03:36:09;;;;;;;7.50;1.00;;;;;;;;;;5032304;28;20090;-73
2022/07/26 03:38:35;;;;;;;6.65;0.98;;;;;;;;;;5040029;28;20482;-72
2022/07/26 03:41:01;;;;;;;11.13;2.22;;;;;;;;;;5034013;28;20466;-73
2022/07/26 03:43:27;;;;;;;8.23;1.27;;;;;;;;;;5013489;28;20032;-73
2022/07/26 03:45:53;;;;;;;10.45;1.77;;;;;;;;;;5037916;28;20029;-73
2022/07/26 03:48:19;;;;;;;6.55;1.10;;;;;;;;;;5039628;28;20080;-73
2022/07/26 03:50:45;;;;;;;6.32;1.13;;;;;;;;;;5023249;28;20034;-72
2022/07/26 03:53:11;;;;;;;8.93;1.05;;;;;;;;;;5011856;28;20048;-72
2022/07/26 03:58:22;;;;;;;9.93;1.42;;;;;;;;;;5031976;28;20052;-73
2022/07/26 04:00:48;;;;;;;9.63;1.27;;;;;;;;;;5033196;28;20028;-73
2022/07/26 04:03:14;;;;;;;5.60;1.30;;;;;;;;;;5026098;28;20033;-73
2022/07/26 04:05:40;;;;;;;11.05;1.42;;;;;;;;;;5032206;28;20034;-73
2022/07/26 04:08:06;;;;;;;13.00;2.90;;;;;;;;;;5029943;28;20362;-73
2022/07/26 04:10:32;;;;;;;10.60;2.53;;;;;;;;;;5026514;28;20034;-73
2022/07/26 04:12:58;;;;;;;8.02;0.82;;;;;;;;;;5029042;28;20037;-73
2022/07/26 04:15:24;;;;;;;7.35;1.05;;;;;;;;;;5025515;28;20045;-73
2022/07/26 04:17:50;;;;;;;5.38;0.85;;;;;;;;;;5038054;28;20030;-73
2022/07/26 04:20:16;;;;;;;14.90;1.77;;;;;;;;;;5029035;28;20435;-73
2022/07/26 04:22:42;;;;;;;5.65;1.05;;;;;;;;;;5032614;28;20125;-72
2022/07/26 04:25:09;;;;;;;12.65;2.25;;;;;;;;;;5025006;28;20045;-72
2022/07/26 04:27:35;;;;;;;8.85;1.20;;;;;;;;;;5045083;28;20089;-72
2022/07/26 04:30:01;;;;;;;3.35;0.93;;;;;;;;;;5031767;28;20121;-72
2022/07/26 04:32:28;;;;;;;9.25;1.55;;;;;;;;;;5022943;28;20112;-72
2022/07/26 04:34:54;;;;;;;7.55;0.80;;;;;;;;;;4400095;28;17893847;-72
2022/07/26 04:37:20;;;;;;;3.97;0.88;;;;;;;;;;5050046;28;20041;-72
2022/07/26 04:39:46;;;;;;;9.10;1.58;;;;;;;;;;5050914;28;20504;-71
2022/07/26 04:42:12;;;;;;;5.28;1.02;;;;;;;;;;5048380;28;20444;-71
2022/07/26 04:44:38;;;;;;;4.75;0.73;;;;;;;;;;5030700;28;20445;-72
2022/07/26 04:47:05;;;;;;;5.00;0.80;;;;;;;;;;5049992;28;20124;-71
2022/07/26 04:49:30;;;;;;;7.00;0.75;;;16.90;99.90;;;;;;5057540;28;20082;-72
2022/07/26 04:51:58;;;;;;;8.48;1.25;;;;;;;;;;5049782;28;20119;-71
2022/07/26 04:54:24;;;;;;;12.90;1.23;;;;;;;;;;5049995;28;20028;-72
2022/07/26 04:56:50;;;;;;;5.47;1.58;;;;;;;;;;5049247;28;20473;-72
2022/07/26 04:59:16;;;;;;;7.25;0.98;;;;;;;;;;5046721;28;20159;-72
2022/07/26 05:01:42;;;;;;;4.28;0.82;;;;;;;;;;5038087;28;20044;-72
2022/07/26 05:04:08;;;;;;;6.30;0.90;;;;;;;;;;5052114;28;20025;-72
2022/07/26 05:06:35;;;;;;;3.75;0.60;;;;;;;;;;5044424;28;20500;-72
2022/07/26 05:09:01;;;;;;;10.77;1.20;;;;;;;;;;5050157;28;20481;-72
2022/07/26 05:11:27;;;;;;;9.48;0.93;;;;;;;;;;5034810;28;20116;-72
2022/07/26 05:13:53;;;;;;;9.82;1.05;;;;;;;;;;5050914;28;20040;-72
2022/07/26 05:16:19;;;;;;;5.45;0.82;;;;;;;;;;5046149;28;20826;-73
2022/07/26 05:18:45;;;;;;;5.22;0.98;;;;;;;;;;5044679;28;20437;-72
2022/07/26 05:21:11;;;;;;;8.02;0.93;;;;;;;;;;5050521;28;20124;-71
2022/07/26 05:23:37;;;;;;;7.68;1.73;;;16.90;99.90;;;;;;5047364;28;20025;-72
2022/07/26 05:26:03;;;;;;;4.88;0.98;;;;;;;;;;5052145;28;20041;-72
2022/07/26 05:28:29;;;;;;;7.75;1.00;;;;;;;;;;5048658;28;20095;-72
2022/07/26 05:30:55;;;;;;;6.45;1.58;;;;;;;;;;5032545;28;20106;-72
2022/07/26 05:33:21;;;;;;;10.05;0.80;;;;;;;;;;5042764;28;20500;-72
2022/07/26 05:35:47;;;;;;;5.75;0.63;;;;;;;;;;5043169;28;20061;-72
2022/07/26 05:38:13;;;;;;;6.68;0.70;;;;;;;;;;5053617;28;20025;-74
2022/07/26 05:40:39;;;;;;;7.45;1.92;;;;;;;;;;5042399;28;20529;-73
2022/07/26 05:43:06;;;;;;;4.88;1.48;;;;;;;;;;5044913;28;20029;-73
2022/07/26 05:45:32;;;;;;;6.15;0.95;;;;;;;;;;5039510;28;20132;-75
2022/07/26 05:47:58;;;;;;;10.18;2.97;;;;;;;;;;5037013;28;20052;-77
2022/07/26 05:50:24;;;;;;;6.65;2.63;;;;;;;;;;5049892;28;20041;-78
2022/07/26 05:52:50;;;;;;;7.18;1.10;;;;;;;;;;5043577;28;20541;-77
2022/07/26 05:55:16;;;;;;;6.47;0.88;;;;;;;;;;5039280;28;20048;-73
2022/07/26 05:57:46;;;;;;;3.90;0.65;;;;;;;;;;5039320;28;20061;-73
2022/07/26 06:00:12;;;;;;;7.30;1.08;;;;;;;;;;5047853;28;20542;-73
2022/07/26 06:02:38;;;;;;;4.85;0.55;;;;;;;;;;5045309;28;20030;-74
2022/07/26 06:05:04;;;;;;;7.18;1.15;;;;;;;;;;5049590;28;20043;-72
2022/07/26 06:07:30;;;;;;;4.80;0.90;;;;;;;;;;5047358;28;20036;-73
2022/07/26 06:09:56;;;;;;;3.80;0.55;;;;;;;;;;5046791;28;20376;-73
2022/07/26 06:12:22;;;;;;;6.97;0.63;;;;;;;;;;5043588;28;20085;-73
2022/07/26 06:14:48;;;;;;;14.88;2.33;;;;;;;;;;5040827;28;20138;-74
2022/07/26 06:17:14;;;;;;;5.70;0.63;;;;;;;;;;5047071;28;20033;-74
2022/07/26 06:19:40;;;;;;;4.88;1.02;;;;;;;;;;5048044;28;20543;-72
2022/07/26 06:22:06;;;;;;;12.65;7.35;;;;;;;;;;5035064;28;20029;-74
2022/07/26 06:24:32;;;;;;;4.28;1.23;;;;;;;;;;5046974;28;20036;-73
2022/07/26 06:26:59;;;;;;;3.20;0.68;;;;;;;;;;5049267;28;20037;-73
2022/07/26 06:29:25;;;;;;;5.53;1.00;;;;;;;;;;5045640;28;20025;-74
2022/07/26 06:31:51;;;;;;;9.80;0.85;;;;;;;;;;5047689;28;20033;-72
2022/07/26 06:34:17;;;;;;;4.03;0.65;;;;;;;;;;5018422;28;20056;-72
2022/07/26 06:36:43;;;;;;;4.75;1.58;;;;;;;;;;5043910;28;20075;-72
2022/07/26 06:39:09;;;;;;;2.70;0.50;;;;;;;;;;5046312;28;20221;-72
2022/07/26 06:41:36;;;;;;;9.32;0.60;;;;;;;;;;5048826;28;20823;-72
2022/07/26 06:44:02;;;;;;;5.13;0.90;;;;;;;;;;5043540;28;20033;-72
2022/07/26 06:46:28;;;;;;;8.80;1.52;;;;;;;;;;5047019;28;20085;-71
2022/07/26 06:48:54;;;;;;;6.38;0.88;;;;;;;;;;5049608;28;20033;-72
2022/07/26 06:51:21;;;;;;;7.47;0.90;;;;;;;;;;5045941;28;20034;-72
2022/07/26 06:53:47;;;;;;;5.00;0.90;;;;;;;;;;5043308;28;20139;-71
2022/07/26 06:56:13;;;;;;;5.55;0.98;;;;;;;;;;5051868;28;20043;-71
2022/07/26 06:58:40;;;;;;;2.40;0.73;;;;;;;;;;5036156;28;20041;-75
2022/07/26 07:01:06;;;;;;;6.55;1.20;;;;;;;;;;5035922;28;20029;-73
2022/07/26 07:03:32;;;;;;;5.00;0.95;;;;;;;;;;5040326;28;20112;-74
2022/07/26 07:05:58;;;;;;;6.47;0.90;;;;;;;;;;5041477;28;20165;-74
2022/07/26 07:08:24;;;;;;;5.43;0.65;;;;;;;;;;5024375;28;20390;-74
2022/07/26 07:10:51;;;;;;;11.35;4.22;;;;;;;;;;5044910;28;20040;-75
2022/07/26 07:13:17;;;;;;;6.22;1.13;;;;;;;;;;5046631;28;20056;-87
2022/07/26 07:15:43;;;;;;;7.70;1.42;;;;;;;;;;5043766;28;20030;-80
2022/07/26 07:18:09;;;;;;;4.38;0.75;;;;;;;;;;5048499;28;20037;-72
2022/07/26 07:20:36;;;;;;;5.28;0.80;;;;;;;;;;5044101;28;20029;-72
2022/07/26 07:23:02;;;;;;;4.45;1.15;;;;;;;;;;5051611;28;20033;-71
2022/07/26 07:25:28;;;;;;;4.97;0.80;;;;;;;;;;5045761;28;20045;-71
2022/07/26 07:27:54;;;;;;;7.65;1.05;;;;;;;;;;5046871;28;20374;-73
2022/07/26 07:30:20;;;;;;;5.13;1.25;;;;;;;;;;5037769;28;20544;-73
2022/07/26 07:32:46;;;;;;;6.03;0.95;;;;;;;;;;5039685;28;20060;-73
2022/07/26 07:35:12;;;;;;;4.50;0.68;;;;;;;;;;5048116;28;20488;-73
2022/07/26 07:37:38;;;;;;;4.50;1.05;;;;;;;;;;5049202;28;20037;-73
2022/07/26 07:40:08;;;;;;;5.82;0.90;;;18.40;99.90;;;;;;5055920;28;20547;-73
2022/07/26 07:42:35;;;;;;;6.07;1.80;;;;;;;;;;5048827;28;20412;-72
2022/07/26 07:45:01;;;;;;;38.28;24.20;;;;;;;;;;5047527;28;20033;-72
2022/07/26 07:47:27;;;;;;;8.27;1.50;;;;;;;;;;5053903;28;20033;-72
2022/07/26 07:49:53;;;;;;;6.78;1.05;;;;;;;;;;5050242;28;20039;-73
2022/07/26 07:52:19;;;;;;;9.82;1.30;;;;;;;;;;5049864;28;20035;-73
2022/07/26 07:54:45;;;;;;;6.35;1.25;;;;;;;;;;5052288;28;20033;-72
2022/07/26 07:57:11;;;;;;;6.65;0.90;;;;;;;;;;5049091;28;20449;-72
2022/07/26 07:59:38;;;;;;;11.50;0.95;;;;;;;;;;5053034;28;20049;-72
2022/07/26 08:02:05;;;;;;;4.40;1.20;;;;;;;;;;5039792;28;20068;-73
2022/07/26 08:04:31;;;;;;;5.35;1.02;;;;;;;;;;5051774;28;20112;-73
2022/07/26 08:06:57;;;;;;;9.82;3.17;;;;;;;;;;5052116;28;20151;-73
2022/07/26 08:09:22;;;;;;;11.13;2.00;;;;;;;;;;5048517;28;20041;-72
2022/07/26 08:11:48;;;;;;;6.40;0.90;;;;;;;;;;5050453;28;20029;-72
2022/07/26 08:14:14;;;;;;;4.80;1.10;;;;;;;;;;5046607;28;20044;-73
2022/07/26 08:16:43;;;;;;;10.57;2.13;;;;;;;;;;5031248;28;20033;-74
2022/07/26 08:19:09;;;;;;;9.18;1.05;;;;;;;;;;5048126;28;20032;-74
2022/07/26 08:21:35;;;;;;;10.50;1.73;;;;;;;;;;5047589;28;20025;-74
2022/07/26 08:24:01;;;;;;;6.70;1.17;;;;;;;;;;5043520;28;20040;-74
2022/07/26 08:26:27;;;;;;;7.38;1.08;;;;;;;;;;5054659;28;20029;-74
2022/07/26 08:28:53;;;;;;;13.38;2.00;;;;;;;;;;5047140;28;20357;-74
2022/07/26 08:31:19;;;;;;;5.90;1.23;;;;;;;;;;5042263;28;20056;-74
2022/07/26 08:33:46;;;;;;;7.70;1.10;;;;;;;;;;5038715;28;20060;-74
2022/07/26 08:36:12;;;;;;;9.23;1.10;;;;;;;;;;5039809;28;20025;-74
2022/07/26 08:38:38;;;;;;;20.40;4.93;;;;;;;;;;5044666;28;20051;-72
2022/07/26 08:41:04;;;;;;;7.72;1.55;;;;;;;;;;5038993;28;20485;-73
2022/07/26 08:43:30;;;;;;;6.13;1.42;;;;;;;;;;5028288;28;20419;-73
2022/07/26 08:46:03;;;;;;;6.68;1.40;;;;;;;;;;5043258;28;20033;-72
2022/07/26 08:48:31;;;;;;;7.65;2.00;;;;;;;;;;5037244;28;20120;-73
2022/07/26 08:50:58;;;;;;;5.63;1.25;;;18.40;99.90;;;;;;5043046;28;20032;-73
2022/07/26 08:53:24;;;;;;;7.35;1.45;;;;;;;;;;5046772;28;20025;-71
2022/07/26 08:55:50;;;;;;;5.93;1.08;;;;;;;;;;5050896;28;20044;-72
2022/07/26 08:58:16;;;;;;;10.75;1.65;;;;;;;;;;5040712;28;20045;-72
2022/07/26 09:00:43;;;;;;;7.38;1.25;;;;;;;;;;5046719;28;20039;-72
2022/07/26 09:03:23;;;;;;;6.05;1.00;;;;;;;;;;5044605;28;20037;-73
2022/07/26 09:05:48;;;;;;;12.80;1.83;;;;;;;;;;5036823;28;20064;-74
2022/07/26 09:08:28;;;;;;;11.80;2.63;;;18.70;99.90;;;;;;5045992;28;20057;-74
2022/07/26 09:10:55;;;;;;;19.05;7.80;;;;;;;;;;5040460;28;20036;-72
2022/07/26 09:13:22;;;;;;;13.38;2.40;;;;;;;;;;5047090;28;20108;-74
2022/07/26 09:16:08;;;;;;;10.02;1.98;;;17.90;99.90;;;;;;5048737;28;20068;-74
2022/07/26 09:18:34;;;;;;;8.80;1.88;;;;;;;;;;5049582;28;20057;-72
2022/07/26 09:21:01;;;;;;;10.63;1.73;;;;;;;;;;5045743;28;20076;-71
2022/07/26 09:23:38;;;;;;;10.07;1.50;;;;;;;;;;5007309;28;20079;-73
2022/07/26 09:26:04;;;;;;;8.10;2.30;;;;;;;;;;5044719;28;20412;-74
2022/07/26 09:28:31;;;;;;;11.07;2.22;;;;;;;;;;5050298;28;20047;-73
2022/07/26 09:31:04;;;;;;;7.82;1.67;;;;;;;;;;5030001;28;20025;-74
2022/07/26 09:33:46;;;;;;;9.32;1.70;;;;;;;;;;5039962;28;20483;-74
2022/07/26 09:36:12;;;;;;;;;;;;;;;;;;5040217;28;20055;-74
2022/07/26 09:38:41;;;;;;;8.50;2.00;;;;;;;;;;5044722;28;19909;-73
2022/07/26 09:41:21;;;;;;;13.05;3.03;;;;;;;;;;5050303;28;20104;-74
2022/07/26 09:43:48;;;;;;;11.13;1.58;;;;;;;;;;5029084;28;20975;-73
2022/07/26 09:46:14;;;;;;;9.88;1.65;;;;;;;;;;5027958;28;20119;-74
2022/07/26 09:48:40;;;;;;;14.48;2.00;;;;;;;;;;5043620;28;20055;-74
2022/07/26 09:51:06;;;;;;;9.35;1.90;;;;;;;;;;5037883;28;20028;-74
2022/07/26 09:53:40;;;;;;;14.95;3.17;;;;;;;;;;5036473;28;20753;-74
2022/07/26 09:56:06;;;;;;;29.45;12.77;;;20.90;99.90;;;;;;5038610;28;20087;-74
2022/07/26 09:58:32;;;;;;;12.65;2.60;;;;;;;;;;5047284;28;20033;-75
2022/07/26 10:00:58;;;;;;;10.13;1.88;;;;;;;;;;5040294;28;20029;-73
2022/07/26 10:03:24;;;;;;;7.55;1.60;;;;;;;;;;5048366;28;20048;-73
2022/07/26 10:05:50;;;;;;;10.80;2.00;;;;;;;;;;5045379;28;20036;-73
2022/07/26 10:08:17;;;;;;;8.13;1.70;;;20.10;99.90;;;;;;5050933;28;20093;-73
2022/07/26 10:11:00;;;;;;;13.30;2.05;;;20.00;99.90;;;;;;5046921;28;20029;-73
2022/07/26 10:13:27;;;;;;;6.13;1.90;;;;;;;;;;5045817;28;20040;-72
2022/07/26 10:15:55;;;;;;;10.45;1.92;;;;;;;;;;5020812;28;20088;-72
2022/07/26 10:18:36;;;;;;;9.98;1.65;;;;;;;;;;5034840;28;20029;-72
2022/07/26 10:21:26;;;;;;;11.95;1.65;;;20.30;99.90;;;;;;5037921;28;20096;-72
2022/07/26 10:24:02;;;;;;;7.18;1.45;;;;;;;;;;5050316;28;20465;-72
2022/07/26 10:26:31;;;;;;;7.28;1.63;;;;;;;;;;5029341;28;20044;-72
2022/07/26 10:29:25;;;;;;;8.20;1.45;;;;;;;;;;5048054;28;20500;-72
2022/07/26 10:31:59;;;;;;;6.63;1.38;;;;;;;;;;5039298;28;20037;-73
2022/07/26 10:34:30;;;;;;;8.88;1.15;;;;;;;;;;5049190;28;20418;-71
2022/07/26 10:37:01;;;;;;;9.13;1.25;;;21.10;99.90;;;;;;5049245;28;20029;-73
2022/07/26 10:39:27;;;;;;;4.07;0.90;;;;;;;;;;5042987;28;20056;-72
2022/07/26 10:42:12;;;;;;;5.35;1.27;;;;;;;;;;5038070;28;20064;-74
2022/07/26 10:44:40;;;;;;;7.07;1.30;;;;;;;;;;5043790;28;20049;-73
2022/07/26 10:47:06;;;;;;;8.43;1.42;;;21.80;99.90;;;;;;5031598;28;20083;-74
2022/07/26 10:49:40;;;;;;;4.45;1.00;;;22.10;98.10;;;;;;5047155;28;20423;-72
2022/07/26 10:52:10;;;;;;;6.43;1.10;;;;;;;;;;5045061;28;20044;-72
2022/07/26 10:54:55;;;;;;;6.10;1.25;;;;;;;;;;5043514;28;20055;-73
2022/07/26 10:57:21;;;;;;;9.90;1.40;;;;;;;;;;5048422;28;20132;-73
2022/07/26 10:59:47;;;;;;;7.25;2.05;;;;;;;;;;5050783;28;20036;-74
2022/07/26 11:02:20;;;;;;;7.18;1.30;;;;;;;;;;5048383;28;20448;-74
2022/07/26 11:04:46;;;;;;;7.05;1.27;;;;;;;;;;5043671;28;20026;-74
2022/07/26 11:07:12;;;;;;;4.60;1.00;;;;;;;;;;5049510;28;20065;-74
2022/07/26 11:09:38;;;;;;;4.72;1.10;;;22.10;99.90;;;;;;5048348;28;20033;-74
2022/07/26 11:12:23;;;;;;;6.97;1.27;;;22.20;95.60;;;;;;5048245;28;20018;-73
2022/07/26 11:14:49;;;;;;;11.10;1.52;;;;;;;;;;5035666;28;20029;-73
2022/07/26 11:17:29;;;;;;;7.70;1.17;;;22.00;93.90;;;;;;5052578;28;20028;-73
2022/07/26 11:19:55;;;;;;;12.35;1.25;;;;;;;;;;5049690;28;20041;-75
2022/07/26 11:22:21;;;;;;;6.95;1.08;;;;;;;;;;5047857;28;20484;-73
2022/07/26 11:24:47;;;;;;;8.18;1.52;;;21.40;96.40;;;;;;5049229;28;20047;-72
2022/07/26 11:27:13;;;;;;;11.65;1.27;;;;;;;;;;5047105;28;20025;-73
2022/07/26 11:29:39;;;;;;;6.15;1.20;;;;;;;;;;5030096;28;20040;-73
2022/07/26 11:32:07;;;;;;;6.18;2.22;;;;;;;;;;5047005;28;20033;-76
2022/07/26 11:34:34;;;;;;;3.85;1.42;;;;;;;;;;5048019;28;20048;-73
2022/07/26 11:37:05;;;;;;;10.05;3.08;;;;;;;;;;5051587;28;20075;-75
2022/07/26 11:39:32;;;;;;;7.35;1.35;;;;;;;;;;5040612;28;20025;-74
2022/07/26 11:42:03;;;;;;;4.60;1.13;;;;;;;;;;5047388;28;20072;-72
2022/07/26 11:44:29;;;;;;;3.13;1.10;;;;;;;;;;5061688;28;20040;-75
2022/07/26 11:46:59;;;;;;;5.65;1.33;;;;;;;;;;5049839;28;20100;-72
2022/07/26 11:49:29;;;;;;;11.52;5.38;;;22.60;94.70;;;;;;5039665;28;20029;-72
2022/07/26 11:51:59;;;;;;;9.73;1.35;;;;;;;;;;5046942;28;20033;-72
2022/07/26 11:54:27;;;;;;;6.00;1.05;;;22.60;94.80;;;;;;5047081;28;20045;-74
2022/07/26 11:56:57;;;;;;;9.18;1.27;;;;;;;;;;5040368;28;20064;-74
2022/07/26 11:59:24;;;;;;;5.97;1.00;;;;;;;;;;5053059;28;20025;-74
2022/07/26 12:01:50;;;;;;;3.75;0.93;;;;;;;;;;5048703;28;20033;-75
2022/07/26 12:04:27;;;;;;;4.43;1.10;;;22.60;94.90;;;;;;5050643;28;20037;-75
2022/07/26 12:06:55;;;;;;;5.60;0.98;;;;;;;;;;5037803;28;20095;-75
2022/07/26 12:09:28;;;;;;;3.78;1.05;;;;;;;;;;5049411;28;20393;-76
2022/07/26 12:11:54;;;;;;;7.95;1.23;;;;;;;;;;5048394;28;20048;-74
2022/07/26 12:14:27;;;;;;;5.28;1.00;;;22.30;93.70;;;;;;5032082;28;20029;-74
2022/07/26 12:16:54;;;;;;;8.73;1.58;;;;;;;;;;5047213;28;20092;-73
2022/07/26 12:19:20;;;;;;;6.47;1.13;;;;;;;;;;5033872;28;20377;-74
2022/07/26 12:21:47;;;;;;;3.20;1.10;;;;;;;;;;5039601;28;20108;-74
2022/07/26 12:24:43;;;;;;;7.93;1.30;;;22.50;95.40;;;;;;5053136;28;20021;-74
2022/07/26 12:27:22;;;;;;;8.93;1.23;;;22.30;93.90;;;;;;5050277;28;20469;-75
2022/07/26 12:29:49;;;;;;;6.82;1.30;;;;;;;;;;5044169;28;20036;-76
2022/07/26 12:32:19;;;;;;;36.20;20.75;;;;;;;;;;5045667;28;20120;-77
2022/07/26 12:34:59;;;;;;;22.63;13.82;;;;;;;;;;5050672;28;20053;-76
2022/07/26 12:37:28;;;;;;;6.82;1.30;;;;;;;;;;5039604;28;20041;-75
2022/07/26 12:40:10;;;;;;;5.03;1.27;;;22.70;94.80;;;;;;5045182;28;20576;-76
2022/07/26 12:42:41;;;;;;;7.60;1.73;;;;;;;;;;5044506;28;20036;-79
2022/07/26 12:45:12;;;;;;;5.45;1.45;;;22.10;94.70;;;;;;5046216;28;20049;-76
2022/07/26 12:47:39;;;;;;;7.55;0.95;;;;;;;;;;5050020;28;20481;-77
2022/07/26 12:50:05;;;;;;;5.45;1.20;;;;;;;;;;5050291;28;20040;-79
2022/07/26 12:52:35;;;;;;;5.05;0.98;;;;;;;;;;5045638;28;20453;-77
2022/07/26 12:55:01;;;;;;;3.83;0.60;;;;;;;;;;5031232;28;20047;-77
2022/07/26 12:57:28;;;;;;;5.45;1.30;;;;;;;;;;5049953;28;20388;-76
2022/07/26 12:59:54;;;;;;;5.60;1.00;;;;;;;;;;5052017;28;20032;-76
2022/07/26 13:02:21;;;;;;;4.55;1.45;;;;;;;;;;5041975;28;20112;-76
2022/07/26 13:04:47;;;;;;;4.88;0.98;;;;;;;;;;5042315;28;20040;-76
2022/07/26 13:07:14;;;;;;;10.32;1.20;;;;;;;;;;5037116;28;20033;-77
2022/07/26 13:09:40;;;;;;;5.18;1.00;;;22.20;99.90;;;;;;5049789;28;20045;-75
2022/07/26 13:12:06;;;;;;;5.68;1.00;;;;;;;;;;5034645;28;20083;-73
2022/07/26 13:14:33;;;;;;;6.78;1.80;;;;;;;;;;5042878;28;20110;-75
2022/07/26 13:17:00;;;;;;;8.05;1.30;;;;;;;;;;5028245;28;20096;-74
2022/07/26 13:19:26;;;;;;;6.95;1.02;;;;;;;;;;5036218;28;20075;-74
2022/07/26 13:21:52;;;;;;;5.07;1.00;;;;;;;;;;5044739;28;20362;-75
2022/07/26 13:24:18;;;;;;;5.70;0.88;;;;;;;;;;5049865;28;20033;-75
2022/07/26 13:26:44;;;;;;;4.90;0.70;;;;;;;;;;5046192;28;20034;-75
2022/07/26 13:29:10;;;;;;;9.23;0.90;;;;;;;;;;5042956;28;20435;-75
2022/07/26 13:31:36;;;;;;;4.95;0.88;;;;;;;;;;5049682;28;20094;-74
2022/07/26 13:34:03;;;;;;;5.15;0.88;;;;;;;;;;5026528;28;20044;-74
2022/07/26 13:36:29;;;;;;;8.95;1.00;;;22.00;99.80;;;;;;5046602;28;20048;-75
2022/07/26 13:38:55;;;;;;;6.80;1.00;;;;;;;;;;5051486;28;20484;-74
2022/07/26 13:41:21;;;;;;;5.88;0.80;;;;;;;;;;5054925;28;20024;-74
2022/07/26 13:43:47;;;;;;;8.77;1.00;;;21.90;96.00;;;;;;5051591;28;20067;-74
2022/07/26 13:46:13;;;;;;;3.00;1.08;;;;;;;;;;5026006;28;20458;-75
2022/07/26 13:48:39;;;;;;;5.82;1.27;;;;;;;;;;5040511;28;20116;-74
2022/07/26 13:51:05;;;;;;;5.93;0.93;;;;;;;;;;5049602;28;20110;-74
2022/07/26 13:53:31;;;;;;;5.63;0.80;;;;;;;;;;5045951;28;20098;-74
2022/07/26 13:55:57;;;;;;;3.75;0.90;;;;;;;;;;5037726;28;20447;-74
2022/07/26 13:58:23;;;;;;;2.60;0.57;;;;;;;;;;5033429;28;20064;-74
2022/07/26 14:00:49;;;;;;;8.20;1.58;;;;;;;;;;5050991;28;20086;-75
2022/07/26 14:03:15;;;;;;;5.25;0.93;;;;;;;;;;5048658;28;20047;-74
2022/07/26 14:05:41;;;;;;;4.28;0.85;;;;;;;;;;5050596;28;20044;-75
2022/07/26 14:08:07;;;;;;;2.55;0.70;;;;;;;;;;5045397;28;20025;-74
2022/07/26 14:10:38;;;;;;;6.20;0.98;;;;;;;;;;5031004;28;20034;-75
2022/07/26 14:13:04;;;;;;;3.40;0.70;;;;;;;;;;5049763;28;20029;-75
2022/07/26 14:15:30;;;;;;;4.72;0.80;;;;;;;;;;5020093;28;20195;-74
2022/07/26 14:17:56;;;;;;;5.00;0.95;;;;;;;;;;5037343;28;20109;-75
2022/07/26 14:20:22;;;;;;;4.55;0.57;;;;;;;;;;5045318;28;20029;-74
2022/07/26 14:22:52;;;;;;;3.08;0.77;;;21.50;98.60;;;;;;5041783;28;20068;-74
2022/07/26 14:25:18;;;;;;;6.47;0.85;;;;;;;;;;5034452;28;20047;-74
2022/07/26 14:27:44;;;;;;;5.82;0.95;;;;;;;;;;5054384;28;20021;-75
2022/07/26 14:30:10;;;;;;;5.75;0.77;;;;;;;;;;5027769;28;20075;-75
2022/07/26 14:32:36;;;;;;;5.38;1.20;;;;;;;;;;5039748;28;20021;-74